Time;durP1;ratioP1;P1;durP2;ratioP2;P2;SDS_P1;SDS_P2;PMS_P1;PMS_P2;Temp;Humidity;BMP_temperature;BMP_pressure;BME280_temperature;BME280_humidity;BME280_pressure;Samples;Min_cycle;Max_cycle;Signal;HPM_P1;HPM_P2
2022/01/18 00:01:38;;;;;;;;;;;3.40;99.90;;;;;;8389481;28;19924;-70
2022/01/18 00:05:43;;;;;;;;;;;3.40;99.90;;;;;;8391757;28;20115;-70
2022/01/18 00:09:45;;;;;;;;;;;3.40;99.90;;;;;;8389437;28;20403;-70
2022/01/18 00:13:49;;;;;;;;;;;3.40;99.90;;;;;;8363721;28;19990;-70
2022/01/18 00:17:54;;;;;;;;;;;3.40;99.90;;;;;;8385370;28;19956;-69
2022/01/18 00:26:04;;;;;;;;;;;3.40;99.90;;;;;;8381429;28;20569;-70
2022/01/18 00:38:28;;;;;;;;;;;3.50;99.90;;;;;;8387258;28;19924;-70
2022/01/18 00:42:29;;;;;;;;;;;3.60;99.90;;;;;;8389021;28;19927;-70
2022/01/18 00:46:31;;;;;;;;;;;3.60;99.90;;;;;;8400557;28;19920;-70
2022/01/18 00:50:33;;;;;;;;;;;3.60;99.90;;;;;;8388310;28;19920;-70
2022/01/18 00:54:39;;;;;;;;;;;3.60;99.90;;;;;;8380243;28;20026;-70
2022/01/18 00:58:42;;;;;;;;;;;3.60;99.90;;;;;;8395547;28;19955;-70
2022/01/18 01:02:44;;;;;;;;;;;3.60;99.90;;;;;;8382784;28;19920;-70
2022/01/18 01:06:45;;;;;;;;;;;3.60;99.90;;;;;;8385485;28;19969;-71
2022/01/18 01:10:47;;;;;;;;;;;3.60;99.90;;;;;;8387211;28;19978;-70
2022/01/18 01:14:52;;;;;;;;;;;3.60;99.90;;;;;;8384921;28;19924;-69
2022/01/18 01:44:42;;;;;;;;;;;3.40;99.90;;;;;;8386017;28;19932;-70
2022/01/18 01:48:46;;;;;;;;;;;3.40;99.90;;;;;;8373507;28;20027;-70
2022/01/18 01:52:49;;;;;;;;;;;3.40;99.90;;;;;;8387886;28;19924;-70
2022/01/18 01:56:50;;;;;;;;;;;3.40;99.90;;;;;;8385654;28;19925;-71
2022/01/18 02:00:57;;;;;;;;;;;3.40;99.90;;;;;;8380261;28;19979;-70
2022/01/18 02:05:00;;;;;;;;;;;3.30;99.90;;;;;;8384865;28;19970;-70
2022/01/18 02:09:01;;;;;;;;;;;3.30;99.90;;;;;;8387298;28;19955;-70
2022/01/18 02:13:04;;;;;;;;;;;3.30;99.90;;;;;;8363336;28;19920;-70
2022/01/18 02:25:46;;;;;;;;;;;3.30;99.90;;;;;;8383862;28;19924;-70
2022/01/18 02:29:48;;;;;;;;;;;3.20;99.90;;;;;;8371145;28;19943;-69
2022/01/18 02:33:49;;;;;;;;;;;3.20;99.90;;;;;;8385333;28;19993;-70
2022/01/18 02:37:52;;;;;;;;;;;3.20;99.90;;;;;;8370438;28;19928;-70
2022/01/18 02:41:55;;;;;;;;;;;3.20;99.90;;;;;;8366581;28;20008;-70
2022/01/18 02:45:57;;;;;;;;;;;3.20;99.90;;;;;;8381281;28;20015;-70
2022/01/18 02:49:59;;;;;;;;;;;3.20;99.90;;;;;;8387734;28;19924;-70
2022/01/18 02:54:05;;;;;;;;;;;3.20;99.90;;;;;;8378589;28;20043;-70
2022/01/18 02:58:10;;;;;;;;;;;3.20;99.90;;;;;;8383144;28;19971;-70
2022/01/18 03:06:43;;;;;;;;;;;3.20;99.90;;;;;;8375240;28;19921;-70
2022/01/18 03:10:44;;;;;;;;;;;3.20;99.90;;;;;;8381971;28;19936;-70
2022/01/18 03:14:46;;;;;;;;;;;3.30;99.90;;;;;;8354732;28;19924;-70
2022/01/18 03:18:48;;;;;;;;;;;3.30;99.90;;;;;;8359436;28;20014;-70
2022/01/18 03:22:50;;;;;;;;;;;3.30;99.90;;;;;;8371687;28;19947;-70
2022/01/18 03:31:12;;;;;;;;;;;3.40;99.90;;;;;;8381057;28;20347;-70
2022/01/18 03:35:14;;;;;;;;;;;3.40;99.90;;;;;;8378980;28;19930;-70
2022/01/18 03:39:15;;;;;;;;;;;3.40;99.90;;;;;;8377394;28;19935;-69
2022/01/18 03:43:18;;;;;;;;;;;3.50;99.90;;;;;;8381118;28;19925;-70
2022/01/18 03:47:19;;;;;;;;;;;3.50;99.90;;;;;;8375803;28;19924;-70
2022/01/18 03:51:21;;;;;;;;;;;3.50;99.90;;;;;;8374320;28;19960;-71
2022/01/18 03:55:23;;;;;;;;;;;3.50;99.90;;;;;;8358898;28;19924;-70
2022/01/18 03:59:24;;;;;;;;;;;3.60;99.90;;;;;;8381998;28;19972;-70
2022/01/18 04:03:26;;;;;;;;;;;3.70;99.90;;;;;;8379824;28;20356;-70
2022/01/18 04:07:28;;;;;;;;;;;3.70;99.90;;;;;;8371704;28;20041;-70
2022/01/18 04:11:29;;;;;;;;;;;3.70;99.90;;;;;;8375500;28;20374;-70
2022/01/18 04:15:32;;;;;;;;;;;3.80;99.90;;;;;;8362759;28;20380;-70
2022/01/18 04:28:02;;;;;;;;;;;3.90;99.90;;;;;;8383512;28;19935;-70
2022/01/18 04:32:04;;;;;;;;;;;3.90;99.90;;;;;;8361877;28;20033;-69
2022/01/18 04:36:07;;;;;;;;;;;4.00;99.90;;;;;;8382372;28;20007;-70
2022/01/18 04:40:14;;;;;;;;;;;4.00;99.90;;;;;;8385154;28;19925;-70
2022/01/18 04:48:37;;;;;;;;;;;4.10;99.90;;;;;;8351556;28;19962;-69
2022/01/18 04:52:39;;;;;;;;;;;4.10;99.90;;;;;;8387300;28;19974;-70
2022/01/18 05:00:42;;;;;;;;;;;4.10;99.90;;;;;;8380116;28;19970;-70
2022/01/18 05:04:44;;;;;;;;;;;4.10;99.90;;;;;;8377320;28;19934;-70
2022/01/18 05:08:46;;;;;;;;;;;4.10;99.90;;;;;;8367784;28;20364;-69
2022/01/18 05:12:50;;;;;;;;;;;4.10;99.90;;;;;;8394991;28;20395;-70
2022/01/18 05:21:18;;;;;;;;;;;4.10;99.90;;;;;;8393513;28;20298;-69
2022/01/18 05:25:19;;;;;;;;;;;4.10;99.90;;;;;;8383848;28;19931;-71
2022/01/18 05:29:21;;;;;;;;;;;4.20;99.90;;;;;;8392822;28;19928;-71
2022/01/18 05:33:23;;;;;;;;;;;4.20;99.90;;;;;;8388320;28;19928;-70
2022/01/18 05:37:25;;;;;;;;;;;4.20;99.90;;;;;;8388292;28;19956;-70
2022/01/18 05:41:30;;;;;;;;;;;4.20;99.90;;;;;;8389905;28;21276;-70
2022/01/18 05:45:31;;;;;;;;;;;4.20;99.90;;;;;;8389664;28;19924;-71
2022/01/18 05:49:33;;;;;;;;;;;4.10;99.90;;;;;;8386113;28;20401;-70
2022/01/18 05:53:35;;;;;;;;;;;4.10;99.90;;;;;;8382906;28;19936;-70
2022/01/18 05:57:38;;;;;;;;;;;4.10;99.90;;;;;;8385719;28;20024;-71
2022/01/18 06:01:47;;;;;;;;;;;4.20;99.90;;;;;;8381187;28;20388;-70
2022/01/18 06:10:10;;;;;;;;;;;4.10;99.90;;;;;;8385223;28;19964;-70
2022/01/18 06:14:12;;;;;;;;;;;4.10;99.90;;;;;;8368059;28;19971;-70
2022/01/18 06:18:14;;;;;;;;;;;4.10;99.90;;;;;;8379157;28;19956;-70
2022/01/18 06:22:16;;;;;;;;;;;4.10;99.90;;;;;;8385377;28;19924;-70
2022/01/18 06:26:17;;;;;;;;;;;4.10;99.90;;;;;;8369874;28;20364;-70
2022/01/18 06:30:20;;;;;;;;;;;4.20;99.90;;;;;;8387587;28;19929;-70
2022/01/18 06:34:21;;;;;;;;;;;4.20;99.90;;;;;;8388675;28;20382;-71
2022/01/18 06:38:23;;;;;;;;;;;4.20;99.90;;;;;;8367559;28;19935;-70
2022/01/18 06:42:25;;;;;;;;;;;4.20;99.90;;;;;;8365928;28;19924;-71
2022/01/18 06:46:26;;;;;;;;;;;4.30;99.90;;;;;;8382829;28;20376;-70
2022/01/18 06:50:28;;;;;;;;;;;4.30;99.90;;;;;;8388288;28;20411;-70
2022/01/18 06:54:29;;;;;;;;;;;4.30;99.90;;;;;;8385570;28;20399;-70
2022/01/18 06:58:31;;;;;;;;;;;4.30;99.90;;;;;;8388227;28;19971;-70
2022/01/18 07:02:33;;;;;;;;;;;4.30;99.90;;;;;;8385569;28;20284;-70
2022/01/18 07:06:35;;;;;;;;;;;4.30;99.90;;;;;;8373716;28;19986;-70
2022/01/18 07:10:37;;;;;;;;;;;4.30;99.90;;;;;;8395041;28;19925;-70
2022/01/18 07:14:39;;;;;;;;;;;4.30;99.90;;;;;;8394006;28;19983;-70
2022/01/18 07:18:41;;;;;;;;;;;4.30;99.90;;;;;;8369775;28;20380;-70
2022/01/18 07:22:43;;;;;;;;;;;4.30;99.90;;;;;;8391156;28;20278;-70
2022/01/18 07:26:46;;;;;;;;;;;4.30;99.90;;;;;;8374897;28;19924;-69
2022/01/18 07:30:48;;;;;;;;;;;4.30;99.90;;;;;;8387030;28;19929;-70
2022/01/18 07:34:54;;;;;;;;;;;4.30;99.90;;;;;;8391428;28;20019;-70
2022/01/18 07:38:56;;;;;;;;;;;4.30;99.90;;;;;;8394227;28;20001;-70
2022/01/18 07:43:00;;;;;;;;;;;4.30;99.90;;;;;;8389741;28;20432;-70
2022/01/18 07:47:02;;;;;;;;;;;4.30;99.90;;;;;;8394348;28;20372;-70
2022/01/18 07:51:04;;;;;;;;;;;4.20;99.90;;;;;;8383740;28;19967;-70
2022/01/18 07:55:06;;;;;;;;;;;4.20;99.90;;;;;;8373772;28;20395;-71
2022/01/18 07:59:09;;;;;;;;;;;4.20;99.90;;;;;;8390536;28;19968;-70
2022/01/18 08:03:11;;;;;;;;;;;4.20;99.90;;;;;;8365320;28;19928;-71
2022/01/18 08:07:12;;;;;;;;;;;4.20;99.90;;;;;;8387115;28;20094;-71
2022/01/18 08:11:15;;;;;;;;;;;4.20;99.90;;;;;;8387876;28;19935;-70
2022/01/18 08:15:21;;;;;;;;;;;4.30;99.90;;;;;;8371572;28;20032;-70
2022/01/18 08:19:25;;;;;;;;;;;4.30;99.90;;;;;;8392730;28;19924;-70
2022/01/18 08:23:26;;;;;;;;;;;4.20;99.90;;;;;;8391947;28;20359;-70
2022/01/18 08:27:28;;;;;;;;;;;4.20;99.90;;;;;;8398026;28;19943;-71
2022/01/18 08:31:29;;;;;;;;;;;4.20;99.90;;;;;;8392839;28;19936;-71
2022/01/18 08:35:31;;;;;;;;;;;4.30;99.90;;;;;;8373641;28;19958;-70
2022/01/18 08:39:33;;;;;;;;;;;4.30;99.90;;;;;;8388258;28;19994;-70
2022/01/18 08:43:37;;;;;;;;;;;4.30;99.90;;;;;;8388789;28;19932;-71
2022/01/18 08:47:39;;;;;;;;;;;4.30;99.90;;;;;;8390468;28;19986;-70
2022/01/18 08:51:41;;;;;;;;;;;4.30;99.90;;;;;;8392354;28;20411;-70
2022/01/18 08:55:42;;;;;;;;;;;4.30;99.90;;;;;;8385273;28;19932;-70
2022/01/18 08:59:44;;;;;;;;;;;4.30;99.90;;;;;;8385677;28;20395;-70
2022/01/18 09:03:46;;;;;;;;;;;4.30;99.90;;;;;;8377275;28;20000;-70
2022/01/18 09:07:48;;;;;;;;;;;4.30;99.90;;;;;;8374581;28;19982;-71
2022/01/18 09:11:49;;;;;;;;;;;4.30;99.90;;;;;;8383122;28;19976;-70
2022/01/18 09:15:51;;;;;;;;;;;4.30;99.90;;;;;;8369415;28;19968;-70
2022/01/18 09:19:52;;;;;;;;;;;4.30;99.90;;;;;;8387427;28;19975;-70
2022/01/18 09:23:54;;;;;;;;;;;4.30;99.90;;;;;;8380690;28;21279;-71
2022/01/18 09:27:56;;;;;;;;;;;4.30;99.90;;;;;;8369604;28;19924;-71
2022/01/18 09:31:58;;;;;;;;;;;4.40;99.90;;;;;;8388261;28;20418;-71
2022/01/18 09:36:00;;;;;;;;;;;4.40;99.90;;;;;;8386599;28;20383;-71
2022/01/18 09:40:02;;;;;;;;;;;4.40;99.90;;;;;;8385171;28;19943;-71
2022/01/18 09:44:05;;;;;;;;;;;4.50;99.90;;;;;;8389619;28;19944;-70
2022/01/18 09:48:06;;;;;;;;;;;4.60;99.90;;;;;;8372665;28;20103;-70
2022/01/18 09:52:08;;;;;;;;;;;4.60;99.90;;;;;;8367351;28;19933;-70
2022/01/18 09:56:10;;;;;;;;;;;4.70;99.90;;;;;;8383044;28;19995;-70
2022/01/18 10:00:11;;;;;;;;;;;4.70;99.90;;;;;;8365042;28;19939;-70
2022/01/18 10:04:25;;;;;;;;;;;4.70;99.90;;;;;;8387529;28;19955;-70
2022/01/18 10:08:27;;;;;;;;;;;4.70;99.90;;;;;;8383721;28;19925;-71
2022/01/18 10:12:28;;;;;;;;;;;4.80;99.90;;;;;;8386929;28;20027;-71
2022/01/18 10:16:30;;;;;;;;;;;4.80;99.90;;;;;;8388683;28;20351;-71
2022/01/18 10:20:46;;;;;;;;;;;4.80;99.90;;;;;;8387852;28;19924;-70
2022/01/18 10:24:48;;;;;;;;;;;4.80;99.90;;;;;;8380100;28;19928;-70
2022/01/18 10:29:00;;;;;;;;;;;4.80;99.90;;;;;;8364057;28;19929;-70
2022/01/18 10:33:10;;;;;;;;;;;4.80;99.90;;;;;;8385342;28;19931;-70
2022/01/18 10:37:17;;;;;;;;;;;4.90;99.90;;;;;;8395472;28;19931;-71
2022/01/18 10:41:27;;;;;;;;;;;4.90;99.90;;;;;;8399673;28;19929;-70
2022/01/18 10:45:32;;;;;;;;;;;4.90;99.90;;;;;;8399648;28;19929;-70
2022/01/18 10:49:39;;;;;;;;;;;5.00;99.90;;;;;;8376197;28;19924;-70
2022/01/18 10:53:54;;;;;;;;;;;5.00;99.90;;;;;;8393076;28;19933;-70
2022/01/18 10:58:08;;;;;;;;;;;5.10;99.90;;;;;;8400730;28;19959;-70
2022/01/18 11:02:14;;;;;;;;;;;5.10;99.90;;;;;;8389814;28;19968;-70
2022/01/18 11:06:16;;;;;;;;;;;5.20;99.90;;;;;;8388362;28;19930;-70
2022/01/18 11:10:19;;;;;;;;;;;5.20;99.90;;;;;;8398202;28;20399;-70
2022/01/18 11:14:22;;;;;;;;;;;5.30;99.90;;;;;;8397941;28;19928;-70
2022/01/18 11:18:35;;;;;;;;;;;5.30;99.90;;;;;;8399128;28;19924;-71
2022/01/18 11:22:38;;;;;;;;;;;5.40;99.90;;;;;;8398279;28;20020;-70
2022/01/18 11:26:41;;;;;;;;;;;5.40;99.90;;;;;;8388098;28;20058;-71
2022/01/18 11:30:44;;;;;;;;;;;5.50;99.90;;;;;;8380959;28;19947;-70
2022/01/18 11:34:46;;;;;;;;;;;5.50;99.90;;;;;;8386755;28;19968;-71
2022/01/18 11:38:52;;;;;;;;;;;5.50;99.90;;;;;;8375690;28;20151;-70
2022/01/18 11:42:55;;;;;;;;;;;5.50;99.90;;;;;;8396432;28;19928;-70
2022/01/18 11:46:57;;;;;;;;;;;5.50;99.90;;;;;;8377008;28;19977;-70
2022/01/18 11:51:05;;;;;;;;;;;5.50;99.90;;;;;;8375551;28;19995;-71
2022/01/18 11:55:27;;;;;;;;;;;5.50;99.90;;;;;;8392038;28;20291;-70
2022/01/18 11:59:39;;;;;;;;;;;5.50;99.90;;;;;;8385530;28;19925;-70
2022/01/18 12:03:43;;;;;;;;;;;5.60;99.90;;;;;;8387685;28;19925;-70
2022/01/18 12:07:47;;;;;;;;;;;5.60;99.90;;;;;;8387932;28;19924;-70
2022/01/18 12:11:50;;;;;;;;;;;5.70;99.90;;;;;;8372572;28;19981;-70
2022/01/18 12:15:57;;;;;;;;;;;5.70;99.90;;;;;;8389282;28;20281;-69
2022/01/18 12:19:58;;;;;;;;;;;5.80;99.90;;;;;;8393314;28;19931;-70
2022/01/18 12:24:26;;;;;;;;;;;5.80;99.90;;;;;;8391675;28;20363;-69
2022/01/18 12:28:50;;;;;;;;;;;5.90;99.90;;;;;;8387602;28;20388;-70
2022/01/18 12:33:11;;;;;;;;;;;6.00;99.90;;;;;;8375495;28;19928;-70
2022/01/18 12:37:20;;;;;;;;;;;6.00;99.90;;;;;;8392737;28;20575;-70
2022/01/18 12:41:41;;;;;;;;;;;6.10;99.90;;;;;;8394021;28;19924;-70
2022/01/18 12:45:43;;;;;;;;;;;6.10;99.90;;;;;;8386204;28;19924;-70
2022/01/18 12:49:47;;;;;;;;;;;6.20;99.90;;;;;;8389878;28;20366;-71
2022/01/18 12:53:49;;;;;;;;;;;6.20;99.90;;;;;;8390572;28;19932;-70
2022/01/18 12:58:05;;;;;;;;;;;6.30;99.90;;;;;;8392505;28;19931;-71
2022/01/18 13:02:18;;;;;;;;;;;6.40;99.90;;;;;;8364637;28;19968;-70
2022/01/18 13:06:22;;;;;;;;;;;6.40;99.90;;;;;;8391996;28;20308;-69
2022/01/18 13:10:34;;;;;;;;;;;6.50;99.90;;;;;;8386279;28;20395;-70
2022/01/18 13:14:48;;;;;;;;;;;6.50;99.90;;;;;;8380457;28;19994;-70
2022/01/18 13:23:10;;;;;;;;;;;6.60;99.90;;;;;;8392284;28;19976;-70
2022/01/18 13:27:26;;;;;;;;;;;6.70;99.90;;;;;;8372165;28;19932;-70
2022/01/18 13:31:27;;;;;;;;;;;6.70;99.90;;;;;;8389539;28;19924;-70
2022/01/18 13:35:30;;;;;;;;;;;6.80;99.90;;;;;;8387417;28;19924;-70
2022/01/18 13:39:33;;;;;;;;;;;6.80;99.90;;;;;;8390889;28;19932;-71
2022/01/18 13:43:34;;;;;;;;;;;6.80;99.90;;;;;;8383340;28;19990;-71
2022/01/18 13:47:41;;;;;;;;;;;6.80;99.90;;;;;;8384397;28;19932;-69
2022/01/18 13:51:58;;;;;;;;;;;6.90;99.90;;;;;;8384192;28;19924;-70
2022/01/18 13:56:01;;;;;;;;;;;6.90;99.90;;;;;;8381787;28;19931;-70
2022/01/18 14:00:08;;;;;;;;;;;6.90;99.90;;;;;;8384631;28;19924;-70
2022/01/18 14:04:13;;;;;;;;;;;7.00;99.90;;;;;;8360301;28;19968;-70
2022/01/18 14:08:15;;;;;;;;;;;7.00;99.90;;;;;;8385021;28;19925;-70
2022/01/18 14:12:19;;;;;;;;;;;7.00;99.90;;;;;;8381056;28;19925;-70
2022/01/18 14:16:28;;;;;;;;;;;7.00;99.90;;;;;;8389569;28;20548;-70
2022/01/18 14:20:33;;;;;;;;;;;7.00;99.90;;;;;;8386307;28;19972;-70
2022/01/18 14:24:38;;;;;;;;;;;7.00;99.90;;;;;;8382098;28;19924;-70
2022/01/18 14:28:40;;;;;;;;;;;7.00;99.90;;;;;;8369361;28;19928;-70
2022/01/18 14:32:42;;;;;;;;;;;7.00;99.90;;;;;;8388663;28;20426;-70
2022/01/18 14:36:48;;;;;;;;;;;7.10;99.90;;;;;;8382155;28;19924;-71
2022/01/18 14:40:53;;;;;;;;;;;7.00;99.90;;;;;;8366746;28;19976;-70
2022/01/18 14:45:19;;;;;;;;;;;7.00;99.90;;;;;;8386681;28;19970;-70
2022/01/18 14:49:20;;;;;;;;;;;7.00;99.90;;;;;;8386958;28;19971;-71
2022/01/18 14:53:22;;;;;;;;;;;7.00;99.90;;;;;;8395236;28;20319;-71
2022/01/18 14:57:24;;;;;;;;;;;7.00;99.90;;;;;;8388521;28;19990;-70
2022/01/18 15:01:30;;;;;;;;;;;7.00;99.90;;;;;;8379279;28;19924;-70
2022/01/18 15:05:32;;;;;;;;;;;7.00;99.90;;;;;;8383837;28;20156;-70
2022/01/18 15:09:34;;;;;;;;;;;7.00;99.90;;;;;;8387405;28;20299;-70
2022/01/18 15:13:36;;;;;;;;;;;6.90;99.90;;;;;;8387064;28;19925;-70
2022/01/18 15:17:38;;;;;;;;;;;6.90;99.90;;;;;;8387686;28;19951;-70
2022/01/18 15:21:39;;;;;;;;;;;6.80;99.90;;;;;;8364730;28;19931;-71
2022/01/18 15:25:41;;;;;;;;;;;6.90;99.90;;;;;;8383797;28;20296;-71
2022/01/18 15:29:43;;;;;;;;;;;6.90;99.90;;;;;;8391731;28;19925;-70
2022/01/18 15:33:44;;;;;;;;;;;6.80;99.90;;;;;;8391293;28;19975;-70
2022/01/18 15:37:46;;;;;;;;;;;6.80;99.90;;;;;;8392247;28;19932;-69
2022/01/18 15:41:48;;;;;;;;;;;6.80;99.90;;;;;;8378147;28;19931;-70
2022/01/18 15:45:50;;;;;;;;;;;6.80;99.90;;;;;;8376597;28;19929;-69
2022/01/18 15:49:53;;;;;;;;;;;6.80;99.90;;;;;;8389953;28;19928;-69
2022/01/18 15:53:54;;;;;;;;;;;6.80;99.90;;;;;;8377676;28;19937;-70
2022/01/18 15:57:56;;;;;;;;;;;6.70;99.90;;;;;;8359567;28;19986;-69
2022/01/18 16:01:58;;;;;;;;;;;6.70;99.90;;;;;;8362019;28;19970;-69
2022/01/18 16:05:59;;;;;;;;;;;6.70;99.90;;;;;;8359634;28;19976;-70
2022/01/18 16:10:01;;;;;;;;;;;6.70;99.90;;;;;;8353217;28;20312;-69
2022/01/18 16:14:03;;;;;;;;;;;6.60;99.90;;;;;;8359880;28;20376;-69
2022/01/18 16:18:05;;;;;;;;;;;6.60;99.90;;;;;;8356828;28;19925;-70
2022/01/18 16:22:06;;;;;;;;;;;6.60;99.90;;;;;;8341234;28;19967;-70
2022/01/18 16:26:08;;;;;;;;;;;6.60;99.90;;;;;;8357572;28;20011;-70
2022/01/18 16:30:10;;;;;;;;;;;6.60;99.90;;;;;;8375486;28;19943;-69
2022/01/18 16:34:12;;;;;;;;;;;6.60;99.90;;;;;;8346838;28;19936;-70
2022/01/18 16:38:13;;;;;;;;;;;6.60;99.90;;;;;;8349579;28;19972;-71
2022/01/18 16:42:15;;;;;;;;;;;6.60;99.90;;;;;;8361622;28;20496;-71
2022/01/18 16:46:16;;;;;;;;;;;6.60;99.90;;;;;;8341257;28;20007;-70
2022/01/18 16:50:18;;;;;;;;;;;6.60;99.90;;;;;;8358651;28;19989;-70
2022/01/18 16:54:21;;;;;;;;;;;6.60;99.90;;;;;;8355513;28;20292;-70
2022/01/18 16:58:22;;;;;;;;;;;6.60;99.90;;;;;;8340031;28;20379;-70
2022/01/18 17:02:24;;;;;;;;;;;6.50;99.90;;;;;;8356621;28;19925;-70
2022/01/18 17:06:26;;;;;;;;;;;6.60;99.90;;;;;;8357295;28;19990;-70
2022/01/18 17:10:27;;;;;;;;;;;6.50;99.90;;;;;;8363190;28;20127;-70
2022/01/18 17:14:29;;;;;;;;;;;6.50;99.90;;;;;;8359610;28;19964;-71
2022/01/18 17:18:31;;;;;;;;;;;6.50;99.90;;;;;;8362218;28;19963;-71
2022/01/18 17:22:32;;;;;;;;;;;6.50;99.90;;;;;;8356924;28;19972;-71
2022/01/18 17:26:34;;;;;;;;;;;6.50;99.90;;;;;;8359627;28;19963;-71
2022/01/18 17:30:36;;;;;;;;;;;6.50;99.90;;;;;;8358282;28;20398;-71
2022/01/18 17:34:38;;;;;;;;;;;6.50;99.90;;;;;;8358597;28;20439;-70
2022/01/18 17:38:41;;;;;;;;;;;6.50;99.90;;;;;;8360461;28;19925;-71
2022/01/18 17:42:49;;;;;;;;;;;6.50;99.90;;;;;;8364834;28;19974;-70
2022/01/18 17:46:51;;;;;;;;;;;6.40;99.90;;;;;;8369594;28;19928;-70
2022/01/18 17:50:52;;;;;;;;;;;6.40;99.90;;;;;;8360671;28;19929;-70
2022/01/18 17:54:56;;;;;;;;;;;6.40;99.90;;;;;;8340198;28;19941;-70
2022/01/18 17:59:00;;;;;;;;;;;6.40;99.90;;;;;;8342192;28;19967;-70
2022/01/18 18:03:02;;;;;;;;;;;6.40;99.90;;;;;;8359755;28;19964;-70
2022/01/18 18:07:04;;;;;;;;;;;6.40;99.90;;;;;;8363917;28;19933;-71
2022/01/18 18:11:06;;;;;;;;;;;6.40;99.90;;;;;;8354985;28;19964;-70
2022/01/18 18:15:08;;;;;;;;;;;6.40;99.90;;;;;;8337163;28;20078;-70
2022/01/18 18:19:12;;;;;;;;;;;6.40;99.90;;;;;;8358922;28;19932;-71
2022/01/18 18:23:13;;;;;;;;;;;6.30;99.90;;;;;;8355341;28;19967;-70
2022/01/18 18:27:15;;;;;;;;;;;6.30;99.90;;;;;;8354168;28;20380;-70
2022/01/18 18:31:17;;;;;;;;;;;6.40;99.90;;;;;;8354915;28;19983;-71
2022/01/18 18:35:18;;;;;;;;;;;6.40;99.90;;;;;;8354998;28;20339;-70
2022/01/18 18:39:27;;;;;;;;;;;6.40;99.90;;;;;;8357060;28;19929;-71
2022/01/18 18:47:36;;;;;;;;;;;6.40;99.90;;;;;;8356431;28;20032;-70
2022/01/18 18:51:37;;;;;;;;;;;6.40;99.90;;;;;;8355751;28;19928;-70
2022/01/18 18:55:41;;;;;;;;;;;6.40;99.90;;;;;;8349160;28;19925;-71
2022/01/18 18:59:55;;;;;;;;;;;6.30;99.90;;;;;;8344744;28;19968;-70
2022/01/18 19:03:56;;;;;;;;;;;6.30;99.90;;;;;;8345345;28;22264;-70
2022/01/18 19:07:58;;;;;;;;;;;6.30;99.90;;;;;;8359278;28;20311;-70
2022/01/18 19:12:00;;;;;;;;;;;6.30;99.90;;;;;;8354453;28;20448;-71
2022/01/18 19:16:03;;;;;;;;;;;6.20;99.90;;;;;;8361389;28;19967;-70
2022/01/18 19:20:05;;;;;;;;;;;6.20;99.90;;;;;;8343172;28;20063;-70
2022/01/18 19:24:06;;;;;;;;;;;6.20;99.90;;;;;;8356270;28;19951;-70
2022/01/18 19:28:08;;;;;;;;;;;6.10;99.90;;;;;;8346786;28;20306;-71
2022/01/18 19:32:09;;;;;;;;;;;6.10;99.90;;;;;;8375823;28;19971;-70
2022/01/18 19:36:11;;;;;;;;;;;6.10;99.90;;;;;;8369775;28;19924;-70
2022/01/18 19:40:18;;;;;;;;;;;6.10;99.90;;;;;;8347683;28;20356;-70
2022/01/18 19:44:20;;;;;;;;;;;6.20;99.90;;;;;;8358839;28;20036;-71
2022/01/18 19:48:21;;;;;;;;;;;6.20;99.90;;;;;;8364361;28;20637;-71
2022/01/18 19:52:24;;;;;;;;;;;6.20;99.90;;;;;;8361048;28;19968;-70
2022/01/18 19:56:25;;;;;;;;;;;6.20;99.90;;;;;;8344960;28;19976;-70
2022/01/18 20:00:29;;;;;;;;;;;6.20;99.90;;;;;;8373122;28;19924;-71
2022/01/18 20:04:33;;;;;;;;;;;6.20;99.90;;;;;;8357601;28;19925;-71
2022/01/18 20:08:35;;;;;;;;;;;6.20;99.90;;;;;;8344346;28;19932;-71
2022/01/18 20:12:38;;;;;;;;;;;6.20;99.90;;;;;;8358013;28;20108;-70
2022/01/18 20:16:39;;;;;;;;;;;6.20;99.90;;;;;;8359700;28;19987;-70
2022/01/18 20:20:41;;;;;;;;;;;6.20;99.90;;;;;;8362830;28;19936;-70
2022/01/18 20:24:43;;;;;;;;;;;6.10;99.90;;;;;;8364885;28;19983;-70
2022/01/18 20:28:45;;;;;;;;;;;6.10;99.90;;;;;;8363504;28;20348;-70
2022/01/18 20:32:47;;;;;;;;;;;6.10;99.90;;;;;;8368077;28;19932;-70
2022/01/18 20:36:48;;;;;;;;;;;6.10;99.90;;;;;;8357485;28;20316;-71
2022/01/18 20:40:55;;;;;;;;;;;6.10;99.90;;;;;;8357108;28;19952;-70
2022/01/18 20:44:56;;;;;;;;;;;6.10;99.90;;;;;;8359263;28;19944;-71
2022/01/18 20:48:58;;;;;;;;;;;6.10;99.90;;;;;;8358790;28;20307;-70
2022/01/18 20:53:00;;;;;;;;;;;6.10;99.90;;;;;;8342112;28;19979;-70
2022/01/18 20:57:02;;;;;;;;;;;6.10;99.90;;;;;;8346117;28;20737;-70
2022/01/18 21:01:04;;;;;;;;;;;6.10;99.90;;;;;;8352258;28;19940;-70
2022/01/18 21:05:08;;;;;;;;;;;6.10;99.90;;;;;;8355170;28;19932;-70
2022/01/18 21:09:11;;;;;;;;;;;6.00;99.90;;;;;;8355372;28;20019;-71
2022/01/18 21:13:15;;;;;;;;;;;6.10;99.90;;;;;;8340188;28;19931;-70
2022/01/18 21:17:25;;;;;;;;;;;6.10;99.90;;;;;;8359430;28;20008;-70
2022/01/18 21:21:26;;;;;;;;;;;6.10;99.90;;;;;;8360288;28;19972;-70
2022/01/18 21:25:28;;;;;;;;;;;6.10;99.90;;;;;;8355267;28;19979;-70
2022/01/18 21:29:30;;;;;;;;;;;6.10;99.90;;;;;;8344816;28;20024;-71
2022/01/18 21:33:32;;;;;;;;;;;6.10;99.90;;;;;;8339020;28;19925;-69
2022/01/18 21:37:34;;;;;;;;;;;6.10;99.90;;;;;;8356535;28;20340;-70
2022/01/18 21:41:36;;;;;;;;;;;6.10;99.90;;;;;;8338249;28;19935;-70
2022/01/18 21:45:37;;;;;;;;;;;6.10;99.90;;;;;;8340502;28;19925;-69
2022/01/18 21:49:45;;;;;;;;;;;6.00;99.90;;;;;;8370954;28;19932;-70
2022/01/18 21:53:46;;;;;;;;;;;6.00;99.90;;;;;;8352765;28;20048;-70
2022/01/18 21:57:50;;;;;;;;;;;6.00;99.90;;;;;;8338950;28;19932;-70
2022/01/18 22:01:51;;;;;;;;;;;6.00;99.90;;;;;;8347842;28;19971;-70
2022/01/18 22:05:53;;;;;;;;;;;6.00;99.90;;;;;;8383641;28;19947;-71
2022/01/18 22:09:54;;;;;;;;;;;6.00;99.90;;;;;;8389066;28;19924;-71
2022/01/18 22:13:56;;;;;;;;;;;6.00;99.90;;;;;;8389261;28;19983;-70
2022/01/18 22:17:58;;;;;;;;;;;6.00;99.90;;;;;;8375506;28;19969;-70
2022/01/18 22:21:59;;;;;;;;;;;6.00;99.90;;;;;;8398184;28;20517;-69
2022/01/18 22:26:01;;;;;;;;;;;6.00;99.90;;;;;;8392487;28;19931;-70
2022/01/18 22:30:03;;;;;;;;;;;6.00;99.90;;;;;;8388975;28;19951;-70
2022/01/18 22:34:05;;;;;;;;;;;6.00;99.90;;;;;;8386332;28;19951;-70
2022/01/18 22:38:07;;;;;;;;;;;6.00;99.90;;;;;;8384664;28;19982;-70
2022/01/18 22:42:08;;;;;;;;;;;6.00;99.90;;;;;;8374077;28;19931;-70
2022/01/18 22:46:10;;;;;;;;;;;6.00;99.90;;;;;;8379855;28;20337;-69
2022/01/18 22:50:14;;;;;;;;;;;6.00;99.90;;;;;;8390178;28;20312;-70
2022/01/18 22:54:15;;;;;;;;;;;6.00;99.90;;;;;;8384178;28;19940;-70
2022/01/18 22:58:17;;;;;;;;;;;6.00;99.90;;;;;;8387797;28;19933;-71
2022/01/18 23:02:19;;;;;;;;;;;6.00;99.90;;;;;;8376462;28;20396;-71
2022/01/18 23:06:20;;;;;;;;;;;6.00;99.90;;;;;;8378513;28;19928;-70
2022/01/18 23:10:31;;;;;;;;;;;6.00;99.90;;;;;;8387802;28;19944;-70
2022/01/18 23:14:42;;;;;;;;;;;6.00;99.90;;;;;;8381132;28;19960;-70
2022/01/18 23:18:43;;;;;;;;;;;5.90;99.90;;;;;;8382565;28;19928;-71
2022/01/18 23:22:45;;;;;;;;;;;5.80;99.90;;;;;;8392238;28;19936;-70
2022/01/18 23:26:47;;;;;;;;;;;5.80;99.90;;;;;;8373645;28;19976;-70
2022/01/18 23:31:32;;;;;;;;;;;5.70;99.90;;;;;;8386876;28;19925;-70
2022/01/18 23:36:02;;;;;;;;;;;5.70;99.90;;;;;;8389307;28;20394;-70
2022/01/18 23:41:23;;;;;;;;;;;5.70;99.90;;;;;;8385482;28;19935;-70
2022/01/18 23:44:41;;;;;;;;;;;5.60;99.90;;;;;;8389325;28;19925;-70
2022/01/18 23:48:43;;;;;;;;;;;5.50;99.90;;;;;;8399706;28;20276;-71
2022/01/18 23:52:45;;;;;;;;;;;5.50;99.90;;;;;;8374815;28;19980;-70
2022/01/18 23:56:47;;;;;;;;;;;5.30;99.90;;;;;;8371993;28;19924;-70
